createdAt,value
2022-08-26T00:01:36.383Z,21.83
2022-08-26T00:04:26.552Z,21.76
2022-08-26T00:07:14.855Z,21.79
2022-08-26T00:10:02.958Z,21.80
2022-08-26T00:12:51.299Z,21.84
2022-08-26T00:15:40.210Z,21.77
2022-08-26T00:18:28.329Z,21.85
2022-08-26T00:21:20.889Z,21.87
2022-08-26T00:24:09.732Z,21.90
2022-08-26T00:26:58.063Z,21.99
2022-08-26T00:29:46.494Z,21.99
2022-08-26T00:32:34.634Z,21.87
2022-08-26T00:35:23.464Z,21.83
2022-08-26T00:38:13.152Z,21.80
2022-08-26T00:41:01.230Z,21.78
2022-08-26T00:43:49.221Z,21.69
2022-08-26T00:46:46.625Z,21.54
2022-08-26T00:49:39.608Z,21.49
2022-08-26T00:52:28.125Z,21.43
2022-08-26T00:55:20.836Z,21.35
2022-08-26T00:58:10.349Z,21.29
2022-08-26T01:00:58.402Z,21.23
2022-08-26T01:03:47.538Z,21.16
2022-08-26T01:06:35.952Z,21.06
2022-08-26T01:09:25.126Z,21.03
2022-08-26T01:12:15.142Z,20.88
2022-08-26T01:15:11.892Z,21.07
2022-08-26T01:18:00.600Z,21.04
2022-08-26T01:20:59.602Z,21.16
2022-08-26T01:23:51.777Z,21.16
2022-08-26T01:26:46.160Z,21.12
2022-08-26T01:29:36.051Z,21.02
2022-08-26T01:32:25.742Z,20.97
2022-08-26T01:35:13.872Z,20.92
2022-08-26T01:38:02.302Z,20.95
2022-08-26T01:40:51.753Z,20.91
2022-08-26T01:43:45.902Z,20.90
2022-08-26T01:46:35.155Z,21.03
2022-08-26T01:49:25.995Z,20.98
2022-08-26T01:52:19.504Z,20.89
2022-08-26T01:55:11.133Z,20.90
2022-08-26T01:58:01.866Z,20.88
2022-08-26T02:00:50.476Z,20.79
2022-08-26T02:03:47.550Z,20.71
2022-08-26T02:06:37.674Z,20.62
2022-08-26T02:09:26.751Z,20.56
2022-08-26T02:12:17.687Z,20.49
2022-08-26T02:15:11.272Z,20.44
2022-08-26T02:17:59.294Z,20.40
2022-08-26T02:20:47.424Z,20.42
2022-08-26T02:23:40.663Z,20.44
2022-08-26T02:26:28.619Z,20.41
2022-08-26T02:29:23.479Z,20.39
2022-08-26T02:32:13.104Z,20.30
2022-08-26T02:35:07.342Z,20.20
2022-08-26T02:37:55.345Z,20.17
2022-08-26T02:40:43.997Z,19.92
2022-08-26T02:43:32.947Z,20.10
2022-08-26T02:46:27.965Z,20.13
2022-08-26T02:49:19.901Z,20.07
2022-08-26T02:52:08.585Z,20.02
2022-08-26T02:54:56.830Z,20.00
2022-08-26T02:57:44.952Z,19.97
2022-08-26T03:00:33.222Z,19.92
2022-08-26T03:03:22.489Z,19.89
2022-08-26T03:06:12.975Z,19.89
2022-08-26T03:09:01.119Z,19.80
2022-08-26T03:11:49.137Z,19.83
2022-08-26T03:14:37.319Z,19.77
2022-08-26T03:17:25.294Z,19.73
2022-08-26T03:20:17.477Z,19.66
2022-08-26T03:23:07.736Z,19.64
2022-08-26T03:25:57.244Z,19.64
2022-08-26T03:28:59.158Z,19.68
2022-08-26T03:31:47.349Z,19.70
2022-08-26T03:34:35.503Z,19.70
2022-08-26T03:37:23.577Z,19.67
2022-08-26T03:40:13.627Z,19.69
2022-08-26T03:43:02.137Z,19.65
2022-08-26T03:45:50.198Z,19.65
2022-08-26T03:48:39.929Z,19.65
2022-08-26T03:51:28.248Z,19.73
2022-08-26T03:54:16.783Z,19.79
2022-08-26T03:57:06.285Z,19.79
2022-08-26T03:59:54.303Z,19.80
2022-08-26T04:02:43.899Z,19.84
2022-08-26T04:05:32.707Z,19.86
2022-08-26T04:08:20.735Z,19.94
2022-08-26T04:11:10.093Z,20.02
2022-08-26T04:14:01.024Z,19.96
2022-08-26T04:16:50.495Z,19.91
2022-08-26T04:19:38.966Z,19.86
2022-08-26T04:22:27.264Z,19.84
2022-08-26T04:25:18.544Z,19.84
2022-08-26T04:28:08.601Z,19.81
2022-08-26T04:30:57.950Z,19.79
2022-08-26T04:33:49.692Z,19.77
2022-08-26T04:36:37.944Z,19.72
2022-08-26T04:39:27.640Z,19.75
2022-08-26T04:42:17.952Z,19.76
2022-08-26T04:45:12.271Z,19.76
2022-08-26T04:48:01.561Z,19.73
2022-08-26T04:50:52.347Z,19.70
2022-08-26T04:53:40.377Z,19.65
2022-08-26T04:56:32.546Z,19.56
2022-08-26T04:59:21.581Z,19.54
2022-08-26T05:02:09.767Z,19.61
2022-08-26T05:04:59.139Z,19.64
2022-08-26T05:07:47.335Z,19.63
2022-08-26T05:10:41.049Z,19.66
2022-08-26T05:13:29.062Z,19.73
2022-08-26T05:16:17.795Z,19.81
2022-08-26T05:19:08.533Z,19.93
2022-08-26T05:21:58.039Z,20.02
2022-08-26T05:24:46.457Z,20.09
2022-08-26T05:27:34.398Z,20.15
2022-08-26T05:30:22.528Z,20.24
2022-08-26T05:33:10.898Z,20.34
2022-08-26T05:35:59.072Z,20.39
2022-08-26T05:38:48.805Z,20.43
2022-08-26T05:41:39.463Z,20.50
2022-08-26T05:44:27.573Z,20.47
2022-08-26T05:47:15.582Z,20.51
2022-08-26T05:50:05.561Z,20.56
2022-08-26T05:52:53.591Z,20.63
2022-08-26T05:55:45.242Z,20.67
2022-08-26T05:58:34.997Z,20.72
2022-08-26T06:01:26.495Z,20.78
2022-08-26T06:04:14.505Z,20.80
2022-08-26T06:07:02.501Z,20.80
2022-08-26T06:10:01.643Z,20.79
2022-08-26T06:13:11.518Z,20.77
2022-08-26T06:16:03.502Z,20.73
2022-08-26T06:18:54.223Z,20.68
2022-08-26T06:21:45.973Z,20.54
2022-08-26T06:24:51.808Z,20.46
2022-08-26T06:27:39.899Z,20.35
2022-08-26T06:30:29.400Z,20.27
2022-08-26T06:33:17.389Z,20.29
2022-08-26T06:36:05.755Z,20.21
2022-08-26T06:38:56.074Z,20.14
2022-08-26T06:41:46.264Z,20.24
2022-08-26T06:44:38.390Z,19.94
2022-08-26T06:47:30.492Z,20.52
2022-08-26T06:50:18.702Z,20.63
2022-08-26T06:53:07.733Z,20.90
2022-08-26T06:55:55.961Z,21.18
2022-08-26T06:58:44.994Z,21.35
2022-08-26T07:01:36.665Z,21.52
2022-08-26T07:04:28.133Z,21.67
2022-08-26T07:07:16.700Z,21.81
2022-08-26T07:10:06.060Z,22.15
2022-08-26T07:12:54.285Z,22.68
2022-08-26T07:15:43.118Z,23.02
2022-08-26T07:18:31.221Z,23.42
2022-08-26T07:21:22.234Z,23.78
2022-08-26T07:24:12.214Z,24.13
2022-08-26T07:27:02.829Z,24.20
2022-08-26T07:29:51.161Z,24.52
2022-08-26T07:32:39.173Z,24.70
2022-08-26T07:35:27.711Z,24.72
2022-08-26T07:38:17.089Z,24.86
2022-08-26T07:41:05.839Z,25.03
2022-08-26T07:43:54.653Z,25.02
2022-08-26T07:46:44.159Z,25.09
2022-08-26T07:49:32.317Z,24.84
2022-08-26T07:52:24.027Z,24.79
2022-08-26T07:55:16.593Z,24.69
2022-08-26T07:58:05.489Z,24.84
2022-08-26T08:00:53.859Z,24.99
2022-08-26T08:03:41.858Z,25.20
2022-08-26T08:06:29.920Z,25.25
2022-08-26T08:09:20.082Z,25.45
2022-08-26T08:12:14.281Z,25.58
2022-08-26T08:15:02.425Z,25.82
2022-08-26T08:17:52.324Z,25.59
2022-08-26T08:20:42.314Z,25.80
2022-08-26T08:23:33.502Z,25.89
2022-08-26T08:26:21.951Z,25.79
2022-08-26T08:29:13.117Z,25.83
2022-08-26T08:32:01.159Z,25.83
2022-08-26T08:34:50.068Z,25.92
2022-08-26T08:37:38.177Z,25.91
2022-08-26T08:40:27.751Z,25.64
2022-08-26T08:43:28.723Z,25.46
2022-08-26T08:46:19.422Z,25.67
2022-08-26T08:49:07.532Z,25.53
2022-08-26T08:52:01.977Z,25.71
2022-08-26T08:54:52.187Z,26.03
2022-08-26T08:57:53.957Z,26.41
2022-08-26T09:00:51.441Z,26.84
2022-08-26T09:03:52.485Z,27.02
2022-08-26T09:06:41.193Z,27.44
2022-08-26T09:09:35.617Z,27.80
2022-08-26T09:12:29.747Z,28.24
2022-08-26T09:15:23.943Z,28.49
2022-08-26T09:18:29.474Z,28.64
2022-08-26T09:21:20.626Z,29.12
2022-08-26T09:24:13.905Z,29.07
2022-08-26T09:27:02.260Z,28.82
2022-08-26T09:29:50.549Z,28.95
2022-08-26T09:32:40.833Z,28.88
2022-08-26T09:35:31.568Z,29.14
2022-08-26T09:38:28.016Z,29.49
2022-08-26T09:41:25.909Z,29.63
2022-08-26T09:44:17.412Z,29.77
2022-08-26T09:47:08.753Z,29.96
2022-08-26T09:50:04.123Z,30.17
2022-08-26T09:53:09.901Z,30.27
2022-08-26T09:56:19.169Z,29.30
2022-08-26T09:59:11.415Z,29.36
2022-08-26T10:02:21.183Z,29.38
2022-08-26T10:05:16.541Z,29.10
2022-08-26T10:08:20.856Z,29.24
2022-08-26T10:11:20.192Z,29.11
2022-08-26T10:14:15.052Z,29.26
2022-08-26T10:17:06.978Z,29.55
2022-08-26T10:20:00.303Z,29.81
2022-08-26T10:22:54.053Z,29.97
2022-08-26T10:25:47.599Z,30.21
2022-08-26T10:28:42.000Z,29.97
2022-08-26T10:31:40.598Z,30.09
2022-08-26T10:34:28.986Z,30.30
2022-08-26T10:37:20.380Z,30.87
2022-08-26T10:40:14.413Z,30.94
2022-08-26T10:43:10.979Z,31.42
2022-08-26T10:46:06.876Z,32.23
2022-08-26T10:48:59.951Z,32.43
2022-08-26T10:51:57.447Z,32.43
2022-08-26T10:54:51.868Z,32.38
2022-08-26T10:57:47.849Z,31.63
2022-08-26T11:01:00.628Z,31.57
2022-08-26T11:04:00.270Z,31.64
2022-08-26T11:06:48.422Z,32.20
2022-08-26T11:09:45.712Z,32.63
2022-08-26T11:13:04.555Z,32.34
2022-08-26T11:16:02.346Z,32.44
2022-08-26T11:18:55.781Z,32.32
2022-08-26T11:22:05.835Z,32.43
2022-08-26T11:25:12.651Z,32.70
2022-08-26T11:28:01.373Z,33.07
2022-08-26T11:30:57.765Z,33.38
2022-08-26T11:33:49.601Z,33.49
2022-08-26T11:36:52.707Z,33.78
2022-08-26T11:39:53.985Z,33.97
2022-08-26T11:42:46.304Z,33.18
2022-08-26T11:45:38.100Z,31.88
2022-08-26T11:48:33.180Z,32.56
2022-08-26T11:51:24.112Z,32.51
2022-08-26T11:54:16.394Z,32.79
2022-08-26T11:57:09.387Z,33.01
2022-08-26T12:00:01.256Z,33.34
2022-08-26T12:02:50.069Z,32.88
2022-08-26T12:05:45.525Z,33.45
2022-08-26T12:08:35.162Z,33.73
2022-08-26T12:11:27.689Z,33.68
2022-08-26T12:14:20.631Z,33.39
2022-08-26T12:17:13.922Z,33.54
2022-08-26T12:20:01.967Z,33.29
2022-08-26T12:22:51.048Z,33.06
2022-08-26T12:25:40.259Z,33.03
2022-08-26T12:28:30.242Z,32.72
2022-08-26T12:31:24.487Z,32.92
2022-08-26T12:34:17.608Z,32.77
2022-08-26T12:37:07.601Z,32.74
2022-08-26T12:39:55.744Z,32.88
2022-08-26T12:42:43.758Z,32.93
2022-08-26T12:45:35.000Z,33.21
2022-08-26T12:48:27.897Z,33.60
2022-08-26T12:51:23.941Z,34.21
2022-08-26T12:54:15.924Z,34.38
2022-08-26T12:57:11.177Z,34.25
2022-08-26T13:00:28.385Z,34.14
2022-08-26T13:03:37.607Z,34.52
2022-08-26T13:06:29.703Z,34.60
2022-08-26T13:09:31.309Z,35.11
2022-08-26T13:12:30.514Z,35.04
2022-08-26T13:15:18.652Z,34.90
2022-08-26T13:18:07.625Z,35.35
2022-08-26T13:20:57.655Z,35.47
2022-08-26T13:23:46.044Z,34.81
2022-08-26T13:26:35.070Z,34.24
2022-08-26T13:29:23.598Z,33.70
2022-08-26T13:32:11.871Z,33.39
2022-08-26T13:35:05.898Z,33.06
2022-08-26T13:37:55.488Z,32.86
2022-08-26T13:40:44.342Z,33.38
2022-08-26T13:43:33.536Z,33.89
2022-08-26T13:46:21.698Z,34.11
2022-08-26T13:49:10.009Z,33.97
2022-08-26T13:51:57.984Z,33.84
2022-08-26T13:54:47.425Z,33.76
2022-08-26T13:57:35.434Z,33.42
2022-08-26T14:00:23.676Z,33.25
2022-08-26T14:03:13.494Z,33.23
2022-08-26T14:06:01.762Z,33.10
2022-08-26T14:08:49.779Z,33.05
2022-08-26T14:11:50.530Z,33.20
2022-08-26T14:14:42.244Z,33.15
2022-08-26T14:17:32.327Z,33.19
2022-08-26T14:20:25.096Z,33.62
2022-08-26T14:23:14.375Z,33.63
2022-08-26T14:26:07.945Z,33.63
2022-08-26T14:28:57.515Z,33.46
2022-08-26T14:31:45.639Z,33.96
2022-08-26T14:34:33.982Z,34.25
2022-08-26T14:37:22.628Z,34.49
2022-08-26T14:40:14.681Z,34.71
2022-08-26T14:43:02.969Z,35.13
2022-08-26T14:45:52.560Z,34.92
2022-08-26T14:48:41.898Z,34.91
2022-08-26T14:51:29.998Z,34.76
2022-08-26T14:54:19.312Z,34.53
2022-08-26T14:57:10.240Z,34.25
2022-08-26T14:59:58.833Z,33.78
2022-08-26T15:02:47.029Z,33.77
2022-08-26T15:05:36.555Z,33.76
2022-08-26T15:08:25.341Z,33.14
2022-08-26T15:11:13.319Z,32.03
2022-08-26T15:14:01.327Z,31.03
2022-08-26T15:16:50.686Z,30.57
2022-08-26T15:19:39.022Z,30.15
2022-08-26T15:22:29.783Z,30.00
2022-08-26T15:25:17.931Z,30.10
2022-08-26T15:28:06.200Z,30.41
2022-08-26T15:30:54.257Z,30.33
2022-08-26T15:33:42.621Z,30.46
2022-08-26T15:36:32.460Z,30.51
2022-08-26T15:39:22.259Z,30.58
2022-08-26T15:42:11.045Z,30.94
2022-08-26T15:44:59.014Z,31.69
2022-08-26T15:48:01.049Z,31.82
2022-08-26T15:50:52.312Z,31.71
2022-08-26T15:53:40.300Z,31.72
2022-08-26T15:56:32.695Z,31.52
2022-08-26T15:59:23.260Z,31.67
2022-08-26T16:02:11.752Z,31.64
2022-08-26T16:05:00.036Z,31.70
2022-08-26T16:07:48.504Z,31.45
2022-08-26T16:10:38.372Z,31.53
2022-08-26T16:13:28.862Z,31.59
2022-08-26T16:16:28.012Z,31.26
2022-08-26T16:19:16.328Z,30.90
2022-08-26T16:22:07.603Z,30.66
2022-08-26T16:24:57.983Z,30.62
2022-08-26T16:27:45.960Z,30.42
2022-08-26T16:30:36.628Z,30.27
2022-08-26T16:33:29.136Z,29.97
2022-08-26T16:36:17.950Z,29.83
2022-08-26T16:39:08.159Z,29.65
2022-08-26T16:41:56.281Z,29.63
2022-08-26T16:44:46.963Z,29.20
2022-08-26T16:47:36.260Z,29.01
2022-08-26T16:50:24.639Z,28.85
2022-08-26T16:56:05.870Z,28.25
2022-08-26T16:58:55.002Z,27.99
2022-08-26T17:01:42.978Z,27.95
2022-08-26T17:04:32.563Z,27.68
2022-08-26T17:07:20.661Z,27.40
2022-08-26T17:10:09.430Z,27.35
2022-08-26T17:12:57.741Z,27.30
2022-08-26T17:15:53.688Z,27.01
2022-08-26T17:18:44.552Z,27.04
2022-08-26T17:21:36.399Z,26.81
2022-08-26T17:24:24.385Z,27.06
2022-08-26T17:27:12.853Z,26.96
2022-08-26T17:30:00.861Z,26.87
2022-08-26T17:32:49.531Z,26.70
2022-08-26T17:35:37.515Z,26.55
2022-08-26T17:38:29.019Z,26.13
2022-08-26T17:41:17.015Z,26.15
2022-08-26T17:44:05.550Z,26.01
2022-08-26T17:46:53.702Z,25.88
2022-08-26T17:49:42.173Z,25.84
2022-08-26T17:52:31.109Z,25.90
2022-08-26T17:55:20.623Z,25.82
2022-08-26T17:58:09.798Z,25.76
2022-08-26T18:00:58.131Z,25.81
2022-08-26T18:03:46.238Z,25.69
2022-08-26T18:06:34.695Z,25.69
2022-08-26T18:09:22.684Z,25.62
2022-08-26T18:12:13.155Z,25.30
2022-08-26T18:15:01.643Z,25.52
2022-08-26T18:17:49.671Z,25.38
2022-08-26T18:20:39.815Z,25.40
2022-08-26T18:23:27.996Z,25.30
2022-08-26T18:26:21.628Z,25.22
2022-08-26T18:29:11.176Z,25.03
2022-08-26T18:31:59.209Z,24.80
2022-08-26T18:34:47.283Z,24.67
2022-08-26T18:37:35.324Z,24.46
2022-08-26T18:40:24.113Z,24.31
2022-08-26T18:43:12.891Z,23.87
2022-08-26T18:46:07.545Z,24.21
2022-08-26T18:48:56.745Z,24.25
2022-08-26T18:51:45.604Z,24.06
2022-08-26T18:54:33.608Z,24.01
2022-08-26T18:57:21.589Z,23.90
2022-08-26T19:00:10.958Z,23.96
2022-08-26T19:03:00.430Z,23.95
2022-08-26T19:05:48.993Z,23.90
2022-08-26T19:08:36.996Z,23.94
2022-08-26T19:11:37.571Z,23.88
2022-08-26T19:14:31.115Z,23.89
2022-08-26T19:17:19.100Z,23.84
2022-08-26T19:20:12.646Z,23.77
2022-08-26T19:23:10.413Z,23.84
2022-08-26T19:26:05.758Z,23.81
2022-08-26T19:28:54.324Z,23.80
2022-08-26T19:31:44.080Z,23.81
2022-08-26T19:34:34.405Z,23.79
2022-08-26T19:37:24.088Z,23.79
2022-08-26T19:40:12.519Z,23.72
2022-08-26T19:43:00.590Z,23.55
2022-08-26T19:45:48.836Z,22.76
2022-08-26T19:48:36.921Z,21.76
2022-08-26T19:51:27.534Z,21.08
2022-08-26T19:54:17.393Z,20.75
2022-08-26T19:57:06.075Z,20.67
2022-08-26T19:59:54.060Z,20.72
2022-08-26T20:02:44.031Z,20.76
2022-08-26T20:05:32.207Z,20.74
2022-08-26T20:08:22.191Z,20.76
2022-08-26T20:11:16.062Z,20.79
2022-08-26T20:14:04.282Z,20.82
2022-08-26T20:16:52.478Z,20.74
2022-08-26T20:19:58.451Z,20.76
2022-08-26T20:22:46.807Z,20.71
2022-08-26T20:25:36.552Z,20.68
2022-08-26T20:28:25.928Z,20.69
2022-08-26T20:31:13.949Z,20.71
2022-08-26T20:34:03.137Z,20.48
2022-08-26T20:36:51.885Z,20.62
2022-08-26T20:39:39.901Z,20.66
2022-08-26T20:42:30.014Z,20.17
2022-08-26T20:45:19.324Z,20.57
2022-08-26T20:48:07.565Z,20.50
2022-08-26T20:50:59.099Z,20.48
2022-08-26T20:53:47.528Z,20.44
2022-08-26T20:56:36.011Z,20.42
2022-08-26T20:59:24.324Z,20.38
2022-08-26T21:02:13.707Z,20.25
2022-08-26T21:05:01.844Z,20.19
2022-08-26T21:07:50.391Z,20.18
2022-08-26T21:10:38.426Z,20.14
2022-08-26T21:13:26.594Z,20.05
2022-08-26T21:16:14.609Z,19.92
2022-08-26T21:19:04.472Z,19.75
2022-08-26T21:21:52.521Z,19.66
2022-08-26T21:24:40.622Z,19.24
2022-08-26T21:27:43.063Z,19.50
2022-08-26T21:30:31.186Z,19.48
2022-08-26T21:33:19.191Z,19.49
2022-08-26T21:36:10.312Z,19.48
2022-08-26T21:38:58.805Z,19.49
2022-08-26T21:41:47.152Z,19.53
2022-08-26T21:44:35.168Z,19.57
2022-08-26T21:47:24.353Z,19.55
2022-08-26T21:50:13.442Z,19.43
2022-08-26T21:53:02.805Z,19.56
2022-08-26T21:55:50.943Z,19.60
2022-08-26T21:58:39.645Z,19.51
2022-08-26T22:01:31.738Z,19.49
2022-08-26T22:04:19.917Z,19.48
2022-08-26T22:07:08.295Z,19.45
2022-08-26T22:09:57.853Z,19.42
2022-08-26T22:12:45.860Z,19.43
2022-08-26T22:15:35.360Z,19.51
2022-08-26T22:18:23.396Z,19.53
2022-08-26T22:21:15.753Z,19.55
2022-08-26T22:24:06.036Z,19.50
2022-08-26T22:26:56.433Z,19.50
2022-08-26T22:29:46.427Z,19.49
2022-08-26T22:32:34.881Z,19.48
2022-08-26T22:35:29.124Z,19.47
2022-08-26T22:38:18.317Z,19.44
2022-08-26T22:41:09.678Z,19.47
2022-08-26T22:43:59.006Z,19.42
2022-08-26T22:46:48.258Z,19.14
2022-08-26T22:49:36.230Z,19.40
2022-08-26T22:52:24.257Z,19.29
2022-08-26T22:55:12.272Z,19.32
2022-08-26T22:58:01.146Z,19.32
2022-08-26T23:00:50.653Z,19.19
2022-08-26T23:03:39.433Z,19.35
2022-08-26T23:06:27.579Z,19.35
2022-08-26T23:09:17.790Z,19.17
2022-08-26T23:12:06.236Z,19.41
2022-08-26T23:14:54.363Z,19.42
2022-08-26T23:17:43.718Z,19.42
2022-08-26T23:20:32.654Z,19.47
2022-08-26T23:23:20.701Z,19.49
2022-08-26T23:26:09.708Z,19.51
2022-08-26T23:28:57.678Z,19.51
2022-08-26T23:31:45.871Z,19.51
2022-08-26T23:34:53.036Z,19.52
2022-08-26T23:37:43.621Z,19.49
2022-08-26T23:40:34.292Z,19.50
2022-08-26T23:43:22.938Z,19.48
2022-08-26T23:46:11.029Z,19.48
2022-08-26T23:48:59.223Z,19.49
2022-08-26T23:52:06.178Z,19.50
2022-08-26T23:54:54.146Z,19.53
2022-08-26T23:57:42.529Z,19.54
